createdAt,value
2019-01-19T00:02:12.988Z,14.10
2019-01-19T00:05:12.839Z,16.80
2019-01-19T00:07:52.937Z,14.90
2019-01-19T00:10:49.865Z,16.57
2019-01-19T00:13:27.860Z,13.07
2019-01-19T00:16:16.356Z,18.23
2019-01-19T00:19:09.062Z,16.67
2019-01-19T00:21:54.609Z,18.03
2019-01-19T00:24:32.014Z,13.73
2019-01-19T00:27:12.272Z,13.10
2019-01-19T00:30:00.472Z,11.07
2019-01-19T00:32:34.949Z,12.07
2019-01-19T00:35:33.684Z,11.93
2019-01-19T00:38:07.666Z,12.83
2019-01-19T00:41:09.256Z,13.20
2019-01-19T00:43:39.402Z,13.70
2019-01-19T00:46:22.830Z,12.80
2019-01-19T00:48:57.325Z,11.20
2019-01-19T00:51:28.864Z,10.90
2019-01-19T00:54:12.263Z,11.40
2019-01-19T00:56:55.846Z,11.00
2019-01-19T00:59:27.030Z,11.57
2019-01-19T01:02:19.572Z,12.10
2019-01-19T01:05:03.581Z,10.63
2019-01-19T01:07:58.990Z,11.70
2019-01-19T01:10:30.862Z,12.23
2019-01-19T01:13:11.073Z,12.87
2019-01-19T01:16:00.698Z,13.17
2019-01-19T01:18:32.247Z,13.83
2019-01-19T01:21:03.785Z,14.10
2019-01-19T01:23:47.347Z,13.97
2019-01-19T01:26:30.785Z,13.23
2019-01-19T01:29:21.642Z,13.77
2019-01-19T01:32:05.015Z,13.87
2019-01-19T01:34:55.660Z,13.97
2019-01-19T01:37:27.272Z,13.40
2019-01-19T01:40:07.601Z,14.27
2019-01-19T01:42:50.266Z,13.87
2019-01-19T01:45:24.795Z,14.10
2019-01-19T01:48:15.784Z,14.27
2019-01-19T01:50:50.298Z,14.27
2019-01-19T01:53:56.560Z,15.10
2019-01-19T01:56:24.915Z,13.97
2019-01-19T01:59:17.045Z,14.23
2019-01-19T02:02:00.296Z,14.03
2019-01-19T02:04:57.208Z,14.80
2019-01-19T02:07:28.869Z,14.30
2019-01-19T02:10:16.538Z,14.87
2019-01-19T02:12:48.190Z,15.33
2019-01-19T02:15:31.614Z,14.67
2019-01-19T02:18:05.846Z,15.13
2019-01-19T02:20:46.466Z,15.63
2019-01-19T02:23:20.725Z,15.63
2019-01-19T02:25:54.999Z,15.50
2019-01-19T02:28:29.434Z,13.57
2019-01-19T02:31:00.979Z,15.40
2019-01-19T02:34:02.096Z,16.13
2019-01-19T02:36:42.655Z,15.13
2019-01-19T02:39:23.053Z,14.67
2019-01-19T02:42:16.801Z,14.93
2019-01-19T02:44:54.113Z,14.40
2019-01-19T02:47:28.429Z,14.97
2019-01-19T02:50:02.652Z,14.10
2019-01-19T02:52:43.279Z,16.13
2019-01-19T02:55:20.385Z,15.43
2019-01-19T02:57:51.997Z,15.00
2019-01-19T03:00:38.775Z,16.27
2019-01-19T03:03:13.640Z,14.50
2019-01-19T03:05:45.184Z,14.93
2019-01-19T03:08:28.816Z,15.97
2019-01-19T03:11:15.594Z,15.17
2019-01-19T03:13:56.170Z,14.17
2019-01-19T03:16:36.658Z,16.17
2019-01-19T03:19:08.317Z,15.63
2019-01-19T03:21:45.980Z,16.10
2019-01-19T03:24:29.306Z,15.17
2019-01-19T03:27:03.725Z,14.63
2019-01-19T03:29:40.810Z,15.70
2019-01-19T03:32:39.595Z,16.33
2019-01-19T03:35:13.806Z,16.60
2019-01-19T03:37:45.393Z,15.53
2019-01-19T03:40:22.485Z,14.37
2019-01-19T03:43:22.318Z,14.83
2019-01-19T03:46:06.746Z,13.80
2019-01-19T03:49:02.342Z,13.97
2019-01-19T03:51:36.540Z,13.37
2019-01-19T03:54:13.439Z,14.63
2019-01-19T03:56:59.260Z,14.80
2019-01-19T03:59:45.963Z,14.27
2019-01-19T04:02:41.647Z,14.13
2019-01-19T04:05:27.835Z,15.07
2019-01-19T04:08:20.173Z,15.43
2019-01-19T04:11:06.083Z,16.60
2019-01-19T04:13:37.631Z,17.17
2019-01-19T04:16:25.845Z,17.30
2019-01-19T04:19:12.407Z,16.63
2019-01-19T04:21:44.303Z,14.70
2019-01-19T04:24:15.842Z,14.87
2019-01-19T04:26:44.631Z,15.97
2019-01-19T04:29:13.016Z,17.53
2019-01-19T04:31:41.298Z,18.03
2019-01-19T04:34:09.899Z,18.80
2019-01-19T04:36:38.663Z,18.47
2019-01-19T04:39:09.437Z,18.63
2019-01-19T04:41:37.735Z,17.60
2019-01-19T04:44:06.100Z,18.00
2019-01-19T04:46:34.396Z,16.90
2019-01-19T04:49:02.937Z,19.57
2019-01-19T04:51:31.304Z,21.30
2019-01-19T04:53:59.668Z,22.43
2019-01-19T04:56:27.942Z,17.40
2019-01-19T04:58:56.248Z,18.20
2019-01-19T05:01:24.540Z,17.93
2019-01-19T05:03:52.887Z,17.90
2019-01-19T05:06:21.218Z,19.40
2019-01-19T05:08:49.574Z,17.90
2019-01-19T05:11:17.918Z,17.90
2019-01-19T05:13:46.206Z,18.73
2019-01-19T05:16:14.599Z,16.27
2019-01-19T05:18:42.876Z,16.07
2019-01-19T05:21:11.218Z,16.03
2019-01-19T05:23:40.016Z,15.10
2019-01-19T05:26:08.367Z,15.30
2019-01-19T05:28:36.730Z,16.00
2019-01-19T05:31:05.100Z,14.83
2019-01-19T05:33:33.456Z,15.30
2019-01-19T05:36:01.847Z,14.93
2019-01-19T05:38:30.125Z,14.33
2019-01-19T05:40:58.478Z,16.10
2019-01-19T05:43:27.009Z,14.37
2019-01-19T05:45:55.270Z,17.07
2019-01-19T05:48:23.555Z,18.20
2019-01-19T05:50:51.873Z,15.47
2019-01-19T05:53:20.168Z,14.20
2019-01-19T05:55:48.514Z,15.17
2019-01-19T05:58:16.791Z,13.00
2019-01-19T06:00:45.062Z,14.47
2019-01-19T06:03:13.746Z,14.73
2019-01-19T06:05:42.776Z,16.43
2019-01-19T06:08:11.129Z,15.53
2019-01-19T06:10:39.438Z,16.27
2019-01-19T06:13:07.843Z,16.80
2019-01-19T06:15:36.263Z,14.87
2019-01-19T06:18:04.546Z,16.00
2019-01-19T06:20:33.363Z,17.10
2019-01-19T06:23:01.648Z,15.90
2019-01-19T06:25:30.455Z,15.43
2019-01-19T06:27:58.818Z,16.77
2019-01-19T06:30:27.113Z,17.70
2019-01-19T06:32:55.514Z,17.77
2019-01-19T06:35:23.812Z,16.67
2019-01-19T06:37:52.232Z,16.73
2019-01-19T06:40:20.754Z,18.53
2019-01-19T06:42:49.111Z,16.53
2019-01-19T06:45:22.838Z,16.20
2019-01-19T06:47:51.159Z,17.77
2019-01-19T06:50:19.518Z,19.30
2019-01-19T06:52:47.812Z,19.97
2019-01-19T06:55:18.803Z,18.33
2019-01-19T06:57:47.133Z,18.90
2019-01-19T07:00:17.423Z,18.77
2019-01-19T07:02:45.779Z,18.57
2019-01-19T07:05:14.086Z,17.90
2019-01-19T07:07:42.536Z,19.80
2019-01-19T07:10:16.493Z,18.57
2019-01-19T07:12:44.829Z,17.67
2019-01-19T07:15:13.827Z,17.07
2019-01-19T07:17:42.157Z,19.13
2019-01-19T07:20:13.363Z,17.17
2019-01-19T07:22:41.662Z,17.97
2019-01-19T07:25:10.012Z,17.67
2019-01-19T07:27:38.322Z,18.93
2019-01-19T07:30:15.166Z,18.10
2019-01-19T07:32:43.657Z,17.20
2019-01-19T07:35:13.764Z,18.90
2019-01-19T07:37:42.129Z,18.37
2019-01-19T07:40:15.498Z,17.83
2019-01-19T07:42:44.574Z,17.47
2019-01-19T07:45:14.968Z,19.80
2019-01-19T07:47:44.911Z,18.40
2019-01-19T07:50:15.447Z,18.63
2019-01-19T07:52:43.808Z,19.27
2019-01-19T07:55:17.821Z,18.67
2019-01-19T07:57:46.225Z,19.80
2019-01-19T08:00:21.898Z,20.70
2019-01-19T08:02:50.879Z,18.30
2019-01-19T08:05:19.225Z,19.50
2019-01-19T08:07:47.609Z,20.13
2019-01-19T08:10:18.854Z,19.60
2019-01-19T08:12:47.153Z,19.30
2019-01-19T08:15:21.530Z,20.67
2019-01-19T08:17:49.885Z,19.30
2019-01-19T08:20:18.176Z,16.57
2019-01-19T08:22:46.560Z,20.10
2019-01-19T08:25:14.838Z,19.57
2019-01-19T08:27:43.141Z,19.10
2019-01-19T08:30:23.322Z,19.50
2019-01-19T08:32:51.603Z,19.93
2019-01-19T08:35:20.150Z,18.77
2019-01-19T08:37:48.694Z,18.90
2019-01-19T08:40:19.675Z,22.07
2019-01-19T08:42:49.653Z,21.63
2019-01-19T08:45:18.585Z,18.90
2019-01-19T08:47:47.067Z,22.97
2019-01-19T08:50:15.534Z,22.57
2019-01-19T08:52:43.897Z,22.50
2019-01-19T08:55:12.292Z,25.37
2019-01-19T08:57:40.625Z,23.37
2019-01-19T09:00:17.539Z,20.87
2019-01-19T09:02:45.806Z,23.23
2019-01-19T09:05:14.095Z,21.13
2019-01-19T09:07:42.378Z,22.50
2019-01-19T09:10:15.638Z,23.27
2019-01-19T09:12:43.968Z,22.73
2019-01-19T09:15:21.911Z,20.77
2019-01-19T09:17:50.249Z,21.97
2019-01-19T09:20:18.539Z,22.47
2019-01-19T09:22:48.533Z,19.77
2019-01-19T09:25:17.178Z,20.53
2019-01-19T09:27:45.626Z,24.03
2019-01-19T09:30:19.479Z,24.40
2019-01-19T09:32:48.216Z,22.53
2019-01-19T09:35:16.840Z,21.03
2019-01-19T09:37:45.118Z,20.00
2019-01-19T09:40:16.761Z,21.20
2019-01-19T09:42:45.288Z,18.90
2019-01-19T09:45:18.325Z,19.63
2019-01-19T09:47:46.636Z,16.93
2019-01-19T09:50:16.346Z,17.63
2019-01-19T09:52:44.655Z,17.70
2019-01-19T09:55:12.999Z,18.83
2019-01-19T09:57:41.348Z,20.00
2019-01-19T10:00:12.913Z,18.70
2019-01-19T10:02:41.210Z,18.60
2019-01-19T10:05:12.864Z,18.93
2019-01-19T10:07:48.226Z,20.17
2019-01-19T10:10:12.879Z,20.33
2019-01-19T10:12:41.192Z,18.17
2019-01-19T10:15:14.853Z,17.80
2019-01-19T10:17:43.130Z,18.40
2019-01-19T10:20:14.353Z,16.13
2019-01-19T10:22:42.640Z,17.03
2019-01-19T10:25:13.697Z,14.83
2019-01-19T10:27:42.387Z,15.80
2019-01-19T10:30:26.147Z,15.50
2019-01-19T10:32:54.491Z,16.77
2019-01-19T10:35:22.776Z,16.10
2019-01-19T10:37:56.106Z,17.03
2019-01-19T10:40:21.251Z,17.47
2019-01-19T10:42:49.527Z,17.10
2019-01-19T10:45:25.810Z,16.83
2019-01-19T10:47:54.091Z,18.03
2019-01-19T10:50:22.370Z,12.70
2019-01-19T10:52:50.661Z,13.87
2019-01-19T10:55:23.268Z,18.70
2019-01-19T10:57:51.537Z,15.30
2019-01-19T11:00:23.295Z,15.30
2019-01-19T11:02:51.667Z,15.00
2019-01-19T11:05:19.953Z,17.00
2019-01-19T11:07:49.375Z,16.63
2019-01-19T11:10:29.073Z,17.03
2019-01-19T11:12:57.354Z,17.17
2019-01-19T11:15:25.711Z,16.13
2019-01-19T11:17:54.015Z,17.03
2019-01-19T11:20:27.762Z,15.67
2019-01-19T11:22:56.483Z,17.13
2019-01-19T11:25:24.829Z,14.33
2019-01-19T11:27:53.112Z,13.23
2019-01-19T11:30:27.149Z,13.60
2019-01-19T11:32:55.504Z,12.00
2019-01-19T11:35:23.844Z,12.57
2019-01-19T11:37:52.245Z,11.03
2019-01-19T11:40:26.284Z,12.17
2019-01-19T11:42:54.593Z,11.07
2019-01-19T11:45:23.871Z,9.97
2019-01-19T11:47:52.199Z,10.50
2019-01-19T11:50:20.468Z,11.27
2019-01-19T11:52:48.749Z,10.87
2019-01-19T11:55:19.595Z,10.77
2019-01-19T11:57:50.385Z,10.37
2019-01-19T12:00:21.268Z,11.10
2019-01-19T12:02:49.614Z,11.87
2019-01-19T12:05:17.998Z,11.00
2019-01-19T12:07:46.340Z,10.67
2019-01-19T12:10:20.654Z,11.40
2019-01-19T12:12:48.945Z,11.67
2019-01-19T12:15:17.320Z,8.73
2019-01-19T12:17:45.673Z,7.73
2019-01-19T12:20:25.692Z,8.87
2019-01-19T12:22:54.048Z,9.87
2019-01-19T12:25:24.359Z,9.83
2019-01-19T12:27:52.653Z,10.73
2019-01-19T12:30:26.291Z,9.30
2019-01-19T12:32:54.557Z,8.40
2019-01-19T12:35:22.834Z,8.47
2019-01-19T12:37:51.215Z,9.57
2019-01-19T12:40:22.012Z,10.20
2019-01-19T12:42:52.531Z,10.57
2019-01-19T12:45:24.066Z,9.90
2019-01-19T12:47:52.326Z,11.37
2019-01-19T12:50:23.143Z,10.33
2019-01-19T12:52:53.099Z,10.20
2019-01-19T12:55:40.908Z,10.90
2019-01-19T12:58:10.441Z,11.07
2019-01-19T13:00:38.710Z,12.10
2019-01-19T13:03:08.131Z,9.57
2019-01-19T13:05:39.644Z,10.33
2019-01-19T13:08:14.404Z,11.13
2019-01-19T13:10:48.499Z,11.03
2019-01-19T13:13:16.990Z,12.07
2019-01-19T13:15:49.069Z,9.93
2019-01-19T13:18:35.676Z,10.13
2019-01-19T13:21:25.474Z,9.30
2019-01-19T13:24:05.942Z,11.27
2019-01-19T13:26:58.724Z,10.97
2019-01-19T13:29:45.058Z,12.50
2019-01-19T13:32:31.868Z,9.20
2019-01-19T13:35:14.993Z,9.40
2019-01-19T13:37:52.597Z,11.53
2019-01-19T13:40:26.938Z,10.47
2019-01-19T13:43:17.984Z,9.83
2019-01-19T13:45:54.558Z,8.47
2019-01-19T13:48:26.123Z,9.77
2019-01-19T13:51:06.674Z,10.47
2019-01-19T13:53:55.123Z,8.83
2019-01-19T13:56:40.722Z,10.10
2019-01-19T13:59:30.198Z,10.23
2019-01-19T14:02:19.407Z,10.97
2019-01-19T14:04:57.022Z,9.93
2019-01-19T14:07:42.975Z,11.57
2019-01-19T14:10:14.497Z,11.50
2019-01-19T14:13:00.808Z,11.97
2019-01-19T14:15:35.215Z,10.90
2019-01-19T14:18:21.481Z,13.47
2019-01-19T14:21:23.303Z,13.77
2019-01-19T14:23:55.279Z,18.67
2019-01-19T14:26:29.698Z,25.03
2019-01-19T14:29:13.066Z,22.13
2019-01-19T14:32:11.653Z,23.77
2019-01-19T14:34:59.500Z,20.33
2019-01-19T14:37:45.957Z,20.53
2019-01-19T14:40:34.358Z,20.33
2019-01-19T14:43:22.495Z,21.27
2019-01-19T14:45:57.025Z,18.77
2019-01-19T14:48:57.387Z,18.93
2019-01-19T14:51:46.930Z,19.77
2019-01-19T14:54:24.371Z,19.00
2019-01-19T14:57:07.670Z,17.33
2019-01-19T14:59:56.247Z,14.70
2019-01-19T15:02:42.506Z,16.50
2019-01-19T15:05:23.216Z,14.43
2019-01-19T15:08:00.494Z,14.20
2019-01-19T15:10:43.854Z,16.70
2019-01-19T15:13:20.975Z,14.37
2019-01-19T15:15:58.168Z,15.93
2019-01-19T15:18:35.702Z,16.10
2019-01-19T15:21:09.911Z,16.60
2019-01-19T15:23:41.468Z,17.77
2019-01-19T15:26:18.512Z,16.27
2019-01-19T15:28:55.762Z,23.70
2019-01-19T15:31:45.423Z,19.33
2019-01-19T15:34:43.754Z,21.03
2019-01-19T15:37:26.793Z,36.10
2019-01-19T15:40:07.026Z,20.40
2019-01-19T15:42:59.235Z,20.20
2019-01-19T15:45:49.863Z,21.90
2019-01-19T15:48:39.282Z,23.17
2019-01-19T15:51:28.428Z,25.37
2019-01-19T15:54:00.231Z,24.00
2019-01-19T15:56:55.501Z,23.73
2019-01-19T15:59:45.333Z,23.23
2019-01-19T16:02:32.103Z,23.03
2019-01-19T16:05:03.654Z,22.87
2019-01-19T16:07:56.351Z,23.93
2019-01-19T16:10:39.595Z,27.50
2019-01-19T16:13:13.925Z,26.03
2019-01-19T16:15:45.548Z,27.90
2019-01-19T16:18:28.852Z,30.20
2019-01-19T16:21:16.894Z,32.87
2019-01-19T16:24:03.085Z,29.97
2019-01-19T16:26:40.514Z,24.53
2019-01-19T16:29:26.984Z,24.20
2019-01-19T16:32:07.776Z,23.57
2019-01-19T16:35:01.997Z,23.33
2019-01-19T16:37:51.832Z,24.47
2019-01-19T16:40:31.814Z,25.10
2019-01-19T16:43:08.919Z,25.70
2019-01-19T16:45:46.171Z,26.87
2019-01-19T16:48:44.535Z,27.63
2019-01-19T16:51:28.089Z,30.43
2019-01-19T16:54:00.367Z,36.33
2019-01-19T16:56:40.825Z,40.90
2019-01-19T16:59:30.365Z,41.77
2019-01-19T17:02:38.809Z,44.33
2019-01-19T17:05:26.206Z,45.87
2019-01-19T17:10:57.260Z,47.73
2019-01-19T17:13:31.593Z,51.50
2019-01-19T17:16:14.651Z,59.03
2019-01-19T17:18:49.163Z,54.60
2019-01-19T17:21:49.795Z,55.80
2019-01-19T17:24:33.604Z,59.83
2019-01-19T17:27:08.057Z,62.10
2019-01-19T17:29:45.778Z,55.67
2019-01-19T17:32:17.419Z,53.97
2019-01-19T17:34:51.807Z,54.10
2019-01-19T17:37:26.397Z,58.40
2019-01-19T17:39:58.008Z,55.70
2019-01-19T17:42:32.435Z,63.80
2019-01-19T17:45:10.088Z,65.97
2019-01-19T17:48:05.451Z,63.63
2019-01-19T17:51:06.741Z,61.77
2019-01-19T17:54:30.770Z,59.70
2019-01-19T17:57:08.215Z,61.23
2019-01-19T17:59:54.331Z,59.23
2019-01-19T18:02:35.029Z,59.40
2019-01-19T18:05:12.420Z,59.97
2019-01-19T18:07:49.918Z,67.20
2019-01-19T18:10:30.229Z,72.40
2019-01-19T18:13:25.911Z,72.20
2019-01-19T18:16:12.122Z,62.23
2019-01-19T18:18:43.706Z,51.47
2019-01-19T18:21:48.392Z,51.43
2019-01-19T18:24:46.864Z,55.47
2019-01-19T18:27:36.389Z,59.07
2019-01-19T18:30:22.672Z,57.17
2019-01-19T18:32:57.453Z,55.03
2019-01-19T18:35:40.480Z,51.70
2019-01-19T18:38:23.844Z,49.53
2019-01-19T18:40:55.530Z,48.63
2019-01-19T18:43:47.807Z,48.43
2019-01-19T18:46:28.316Z,49.03
2019-01-19T18:49:08.421Z,51.37
2019-01-19T18:52:02.803Z,49.90
2019-01-19T18:54:43.510Z,62.73
2019-01-19T18:57:23.760Z,56.57
2019-01-19T19:00:01.095Z,50.37
2019-01-19T19:02:35.402Z,51.07
2019-01-19T19:05:26.385Z,54.43
2019-01-19T19:08:00.795Z,68.30
2019-01-19T19:10:54.808Z,72.73
2019-01-19T19:13:44.053Z,99.77
2019-01-19T19:16:18.920Z,91.30
2019-01-19T19:18:55.987Z,85.97
2019-01-19T19:21:36.202Z,90.63
2019-01-19T19:24:33.096Z,90.37
2019-01-19T19:27:19.384Z,88.60
2019-01-19T19:29:59.753Z,82.20
2019-01-19T19:32:43.320Z,81.67
2019-01-19T19:35:18.017Z,76.70
2019-01-19T19:37:49.591Z,68.33
2019-01-19T19:40:49.902Z,68.60
2019-01-19T19:43:27.382Z,79.10
2019-01-19T19:45:58.948Z,96.83
2019-01-19T19:48:36.199Z,114.33
2019-01-19T19:51:28.556Z,68.37
2019-01-19T19:53:56.845Z,59.70
2019-01-19T19:56:24.314Z,57.30
2019-01-19T19:58:52.603Z,61.23
2019-01-19T20:01:20.958Z,60.80
2019-01-19T20:03:49.258Z,61.40
2019-01-19T20:06:17.993Z,63.80
2019-01-19T20:08:46.333Z,61.07
2019-01-19T20:11:14.628Z,61.90
2019-01-19T20:13:42.997Z,65.00
2019-01-19T20:19:41.098Z,88.87
2019-01-19T20:22:09.374Z,89.20
2019-01-19T20:24:37.666Z,90.50
2019-01-19T20:27:06.039Z,91.93
2019-01-19T20:29:34.324Z,83.03
2019-01-19T20:32:03.083Z,80.00
2019-01-19T20:34:31.375Z,77.00
2019-01-19T20:36:59.739Z,72.93
2019-01-19T20:39:28.123Z,76.90
2019-01-19T20:41:56.485Z,91.93
2019-01-19T20:44:24.832Z,88.40
2019-01-19T20:46:53.155Z,92.03
2019-01-19T20:49:21.506Z,88.80
2019-01-19T20:51:49.793Z,89.87
2019-01-19T20:54:18.165Z,85.73
2019-01-19T20:56:46.590Z,90.77
2019-01-19T20:59:14.871Z,99.00
2019-01-19T21:01:43.197Z,104.17
2019-01-19T21:04:15.714Z,98.97
2019-01-19T21:06:41.503Z,101.00
2019-01-19T21:09:11.163Z,97.60
2019-01-19T21:11:39.541Z,97.73
2019-01-19T21:14:07.824Z,95.70
2019-01-19T21:16:36.182Z,94.30
2019-01-19T21:19:04.724Z,95.83
2019-01-19T21:21:33.061Z,94.00
2019-01-19T21:24:01.918Z,76.00
2019-01-19T21:26:30.284Z,80.20
2019-01-19T21:28:58.591Z,84.00
2019-01-19T21:31:26.879Z,84.30
2019-01-19T21:33:55.163Z,89.00
2019-01-19T21:36:23.526Z,94.10
2019-01-19T21:38:51.870Z,94.47
2019-01-19T21:41:20.155Z,89.77
2019-01-19T21:43:48.451Z,88.70
2019-01-19T21:46:16.805Z,84.87
2019-01-19T21:48:45.087Z,86.40
2019-01-19T21:51:13.367Z,93.13
2019-01-19T21:53:41.926Z,90.03
2019-01-19T21:56:10.256Z,103.83
2019-01-19T21:58:38.543Z,104.33
2019-01-19T22:01:06.928Z,100.90
2019-01-19T22:03:35.287Z,101.63
2019-01-19T22:06:03.597Z,105.10
2019-01-19T22:08:31.964Z,117.63
2019-01-19T22:11:00.331Z,126.77
2019-01-19T22:13:28.716Z,106.97
2019-01-19T22:15:57.346Z,102.47
2019-01-19T22:18:25.638Z,97.93
2019-01-19T22:20:53.931Z,97.47
2019-01-19T22:23:22.235Z,96.47
2019-01-19T22:25:50.705Z,93.37
2019-01-19T22:28:18.999Z,89.57
2019-01-19T22:30:47.320Z,86.80
2019-01-19T22:33:16.440Z,90.47
2019-01-19T22:35:44.772Z,89.97
2019-01-19T22:38:13.130Z,92.23
2019-01-19T22:40:41.487Z,87.57
2019-01-19T22:43:09.772Z,85.63
2019-01-19T22:45:38.095Z,87.90
2019-01-19T22:48:06.410Z,86.73
2019-01-19T22:50:34.691Z,91.00
2019-01-19T22:53:02.988Z,87.40
2019-01-19T22:55:31.367Z,88.80
2019-01-19T22:57:59.878Z,85.20
2019-01-19T23:00:58.288Z,91.10
2019-01-19T23:03:27.868Z,89.97
2019-01-19T23:05:56.151Z,92.53
2019-01-19T23:08:24.475Z,93.03
2019-01-19T23:10:52.759Z,91.67
2019-01-19T23:13:21.120Z,92.87
2019-01-19T23:15:49.417Z,92.50
2019-01-19T23:18:17.769Z,92.00
2019-01-19T23:20:46.085Z,92.03
2019-01-19T23:23:14.365Z,105.50
2019-01-19T23:25:42.903Z,110.77
2019-01-19T23:28:11.295Z,106.93
2019-01-19T23:30:39.570Z,105.23
2019-01-19T23:33:07.845Z,108.17
2019-01-19T23:35:36.163Z,114.83
2019-01-19T23:38:04.447Z,101.37
2019-01-19T23:40:32.713Z,98.93
2019-01-19T23:43:01.003Z,99.67
2019-01-19T23:45:29.296Z,110.53
2019-01-19T23:47:57.678Z,112.83
2019-01-19T23:50:25.968Z,113.93
2019-01-19T23:52:54.256Z,113.67
2019-01-19T23:55:22.592Z,122.80
2019-01-19T23:57:51.335Z,126.03
